Terminal Aerodrome Forecast
Issued by NWS

Home | Current Version | Previous Version | Text Only | Print | Product List | Glossary On
Versions: 1 2 3 4 5 6 7 8 9 10 11 12 13 14 15 16 17 18 19 20 21 22 23 24 25 26 27 28 29 30 31 32 33 34 35 36 37
000
FTAK31 PANC 272003 AAA
TAFAEN
TAF AMD
PAEN 272003Z 2720/2818 36007KT 6SM BR SCT006 BKN050
      TEMPO 2720/2722 1SM BR BKN006
     FM272200 03010KT P6SM SCT030 BKN200=

USA.gov is the U.S. government's official web portal to all federal, state and local government web resources and services.